sensor_id;sensor_type;location;lat;lon;timestamp;temperature;humidity
42095;DHT22;27753;55.724;37.612;2023-05-20T00:00:30;11.90;66.80
42095;DHT22;27753;55.724;37.612;2023-05-20T00:02:55;12.00;66.70
42095;DHT22;27753;55.724;37.612;2023-05-20T00:05:22;11.90;66.50
42095;DHT22;27753;55.724;37.612;2023-05-20T00:07:48;11.90;66.10
42095;DHT22;27753;55.724;37.612;2023-05-20T00:10:13;11.90;66.00
42095;DHT22;27753;55.724;37.612;2023-05-20T00:12:39;11.90;65.80
42095;DHT22;27753;55.724;37.612;2023-05-20T00:15:05;11.90;65.50
42095;DHT22;27753;55.724;37.612;2023-05-20T00:17:31;12.00;65.00
42095;DHT22;27753;55.724;37.612;2023-05-20T00:19:56;11.90;64.80
42095;DHT22;27753;55.724;37.612;2023-05-20T00:22:24;11.90;64.90
42095;DHT22;27753;55.724;37.612;2023-05-20T00:24:50;11.90;65.00
42095;DHT22;27753;55.724;37.612;2023-05-20T00:27:15;11.90;65.10
42095;DHT22;27753;55.724;37.612;2023-05-20T00:29:41;11.90;65.10
42095;DHT22;27753;55.724;37.612;2023-05-20T00:32:07;11.90;65.20
42095;DHT22;27753;55.724;37.612;2023-05-20T00:34:33;11.90;65.40
42095;DHT22;27753;55.724;37.612;2023-05-20T00:36:58;12.00;65.60
42095;DHT22;27753;55.724;37.612;2023-05-20T00:39:24;11.90;65.70
42095;DHT22;27753;55.724;37.612;2023-05-20T00:41:50;11.90;65.70
42095;DHT22;27753;55.724;37.612;2023-05-20T00:44:16;11.90;65.90
42095;DHT22;27753;55.724;37.612;2023-05-20T00:46:43;11.90;65.90
42095;DHT22;27753;55.724;37.612;2023-05-20T00:49:09;11.90;66.10
42095;DHT22;27753;55.724;37.612;2023-05-20T00:51:36;11.90;66.30
42095;DHT22;27753;55.724;37.612;2023-05-20T00:54:01;11.90;66.60
42095;DHT22;27753;55.724;37.612;2023-05-20T00:56:27;11.80;66.90
42095;DHT22;27753;55.724;37.612;2023-05-20T00:58:54;11.90;67.00
42095;DHT22;27753;55.724;37.612;2023-05-20T01:01:20;11.90;67.10
42095;DHT22;27753;55.724;37.612;2023-05-20T01:03:46;11.90;67.20
42095;DHT22;27753;55.724;37.612;2023-05-20T01:06:13;11.90;67.20
42095;DHT22;27753;55.724;37.612;2023-05-20T01:08:38;11.90;67.20
42095;DHT22;27753;55.724;37.612;2023-05-20T01:11:13;11.90;67.50
42095;DHT22;27753;55.724;37.612;2023-05-20T01:13:42;11.90;67.70
42095;DHT22;27753;55.724;37.612;2023-05-20T01:16:09;11.90;67.80
42095;DHT22;27753;55.724;37.612;2023-05-20T01:18:35;11.90;68.20
42095;DHT22;27753;55.724;37.612;2023-05-20T01:21:03;11.80;68.40
42095;DHT22;27753;55.724;37.612;2023-05-20T01:23:39;11.80;68.50
42095;DHT22;27753;55.724;37.612;2023-05-20T01:26:05;11.80;68.70
42095;DHT22;27753;55.724;37.612;2023-05-20T01:28:33;11.80;69.20
42095;DHT22;27753;55.724;37.612;2023-05-20T01:31:01;11.80;69.30
42095;DHT22;27753;55.724;37.612;2023-05-20T01:33:28;11.80;69.70
42095;DHT22;27753;55.724;37.612;2023-05-20T01:35:55;11.80;69.90
42095;DHT22;27753;55.724;37.612;2023-05-20T01:38:22;11.80;70.20
42095;DHT22;27753;55.724;37.612;2023-05-20T01:40:48;11.70;70.30
42095;DHT22;27753;55.724;37.612;2023-05-20T01:43:15;11.70;70.60
42095;DHT22;27753;55.724;37.612;2023-05-20T01:45:41;11.70;70.60
42095;DHT22;27753;55.724;37.612;2023-05-20T01:48:08;11.70;70.90
42095;DHT22;27753;55.724;37.612;2023-05-20T01:50:36;11.70;71.10
42095;DHT22;27753;55.724;37.612;2023-05-20T01:53:01;11.70;71.30
42095;DHT22;27753;55.724;37.612;2023-05-20T01:55:27;11.70;71.40
42095;DHT22;27753;55.724;37.612;2023-05-20T01:57:53;11.70;71.40
42095;DHT22;27753;55.724;37.612;2023-05-20T02:00:18;11.70;71.90
42095;DHT22;27753;55.724;37.612;2023-05-20T02:02:44;11.70;72.30
42095;DHT22;27753;55.724;37.612;2023-05-20T02:05:10;11.60;72.50
42095;DHT22;27753;55.724;37.612;2023-05-20T02:07:36;11.60;72.80
42095;DHT22;27753;55.724;37.612;2023-05-20T02:10:02;11.60;73.10
42095;DHT22;27753;55.724;37.612;2023-05-20T02:12:28;11.60;73.00
42095;DHT22;27753;55.724;37.612;2023-05-20T02:14:54;11.60;73.10
42095;DHT22;27753;55.724;37.612;2023-05-20T02:17:20;11.70;73.40
42095;DHT22;27753;55.724;37.612;2023-05-20T02:19:45;11.70;73.50
42095;DHT22;27753;55.724;37.612;2023-05-20T02:22:12;11.70;73.40
42095;DHT22;27753;55.724;37.612;2023-05-20T02:24:37;11.70;73.50
42095;DHT22;27753;55.724;37.612;2023-05-20T02:27:03;11.70;73.60
42095;DHT22;27753;55.724;37.612;2023-05-20T02:29:30;11.70;74.20
42095;DHT22;27753;55.724;37.612;2023-05-20T02:31:56;11.60;74.30
42095;DHT22;27753;55.724;37.612;2023-05-20T02:34:22;11.60;74.50
42095;DHT22;27753;55.724;37.612;2023-05-20T02:36:48;11.60;74.40
42095;DHT22;27753;55.724;37.612;2023-05-20T02:39:13;11.60;74.50
42095;DHT22;27753;55.724;37.612;2023-05-20T02:41:39;11.60;74.70
42095;DHT22;27753;55.724;37.612;2023-05-20T02:44:05;11.70;74.90
42095;DHT22;27753;55.724;37.612;2023-05-20T02:46:31;11.70;74.90
42095;DHT22;27753;55.724;37.612;2023-05-20T02:48:57;11.70;75.00
42095;DHT22;27753;55.724;37.612;2023-05-20T02:51:23;11.70;75.00
42095;DHT22;27753;55.724;37.612;2023-05-20T02:53:48;11.80;74.90
42095;DHT22;27753;55.724;37.612;2023-05-20T02:56:14;11.80;74.90
42095;DHT22;27753;55.724;37.612;2023-05-20T02:58:40;11.90;75.40
42095;DHT22;27753;55.724;37.612;2023-05-20T03:01:06;11.80;75.40
42095;DHT22;27753;55.724;37.612;2023-05-20T03:03:32;11.80;75.50
42095;DHT22;27753;55.724;37.612;2023-05-20T03:05:58;11.80;75.60
42095;DHT22;27753;55.724;37.612;2023-05-20T03:08:23;11.80;75.90
42095;DHT22;27753;55.724;37.612;2023-05-20T03:10:49;11.80;75.80
42095;DHT22;27753;55.724;37.612;2023-05-20T03:13:15;11.70;76.00
42095;DHT22;27753;55.724;37.612;2023-05-20T03:15:41;11.80;76.10
42095;DHT22;27753;55.724;37.612;2023-05-20T03:18:08;11.80;76.40
42095;DHT22;27753;55.724;37.612;2023-05-20T03:20:34;11.80;76.40
42095;DHT22;27753;55.724;37.612;2023-05-20T03:23:05;11.80;76.40
42095;DHT22;27753;55.724;37.612;2023-05-20T03:25:31;11.80;76.20
42095;DHT22;27753;55.724;37.612;2023-05-20T03:27:57;11.80;76.30
42095;DHT22;27753;55.724;37.612;2023-05-20T03:30:24;11.80;76.70
42095;DHT22;27753;55.724;37.612;2023-05-20T03:32:49;11.80;76.50
42095;DHT22;27753;55.724;37.612;2023-05-20T03:35:15;11.80;77.00
42095;DHT22;27753;55.724;37.612;2023-05-20T03:37:41;11.70;77.00
42095;DHT22;27753;55.724;37.612;2023-05-20T03:40:07;11.80;77.20
42095;DHT22;27753;55.724;37.612;2023-05-20T03:42:35;11.80;77.20
42095;DHT22;27753;55.724;37.612;2023-05-20T03:45:00;11.90;77.20
42095;DHT22;27753;55.724;37.612;2023-05-20T03:47:26;11.90;77.30
42095;DHT22;27753;55.724;37.612;2023-05-20T03:49:52;11.90;77.20
42095;DHT22;27753;55.724;37.612;2023-05-20T03:52:18;11.90;77.20
42095;DHT22;27753;55.724;37.612;2023-05-20T03:54:43;11.90;77.50
42095;DHT22;27753;55.724;37.612;2023-05-20T03:57:09;11.80;77.70
42095;DHT22;27753;55.724;37.612;2023-05-20T03:59:35;11.80;77.70
42095;DHT22;27753;55.724;37.612;2023-05-20T04:02:01;11.80;77.80
42095;DHT22;27753;55.724;37.612;2023-05-20T04:04:27;11.80;78.00
42095;DHT22;27753;55.724;37.612;2023-05-20T04:06:53;11.90;77.90
42095;DHT22;27753;55.724;37.612;2023-05-20T04:09:20;12.10;77.90
42095;DHT22;27753;55.724;37.612;2023-05-20T04:11:46;12.10;77.50
42095;DHT22;27753;55.724;37.612;2023-05-20T04:14:13;12.20;77.50
42095;DHT22;27753;55.724;37.612;2023-05-20T04:16:39;12.20;77.40
42095;DHT22;27753;55.724;37.612;2023-05-20T04:19:05;12.10;77.50
42095;DHT22;27753;55.724;37.612;2023-05-20T04:21:31;12.00;77.80
42095;DHT22;27753;55.724;37.612;2023-05-20T04:23:57;12.00;78.20
42095;DHT22;27753;55.724;37.612;2023-05-20T04:26:23;12.00;78.20
42095;DHT22;27753;55.724;37.612;2023-05-20T04:28:48;12.00;78.10
42095;DHT22;27753;55.724;37.612;2023-05-20T04:31:14;12.10;78.40
42095;DHT22;27753;55.724;37.612;2023-05-20T04:33:40;12.10;78.10
42095;DHT22;27753;55.724;37.612;2023-05-20T04:36:06;12.10;78.40
42095;DHT22;27753;55.724;37.612;2023-05-20T04:38:32;12.10;78.20
42095;DHT22;27753;55.724;37.612;2023-05-20T04:40:58;12.20;78.30
42095;DHT22;27753;55.724;37.612;2023-05-20T04:43:24;12.20;78.30
42095;DHT22;27753;55.724;37.612;2023-05-20T04:45:56;12.30;78.40
42095;DHT22;27753;55.724;37.612;2023-05-20T04:48:22;12.30;78.30
42095;DHT22;27753;55.724;37.612;2023-05-20T04:50:48;12.40;78.00
42095;DHT22;27753;55.724;37.612;2023-05-20T04:53:14;12.50;78.20
42095;DHT22;27753;55.724;37.612;2023-05-20T04:55:40;12.60;78.00
42095;DHT22;27753;55.724;37.612;2023-05-20T04:58:07;12.70;77.90
42095;DHT22;27753;55.724;37.612;2023-05-20T05:00:42;12.80;77.70
42095;DHT22;27753;55.724;37.612;2023-05-20T05:03:08;12.90;77.50
42095;DHT22;27753;55.724;37.612;2023-05-20T05:05:34;13.00;77.10
42095;DHT22;27753;55.724;37.612;2023-05-20T05:08:04;13.10;76.80
42095;DHT22;27753;55.724;37.612;2023-05-20T05:10:33;13.20;76.30
42095;DHT22;27753;55.724;37.612;2023-05-20T05:12:59;13.20;76.10
42095;DHT22;27753;55.724;37.612;2023-05-20T05:15:25;13.30;75.90
42095;DHT22;27753;55.724;37.612;2023-05-20T05:17:51;13.50;75.80
42095;DHT22;27753;55.724;37.612;2023-05-20T05:20:17;13.70;75.50
42095;DHT22;27753;55.724;37.612;2023-05-20T05:22:43;13.90;74.70
42095;DHT22;27753;55.724;37.612;2023-05-20T05:25:09;14.00;74.60
42095;DHT22;27753;55.724;37.612;2023-05-20T05:27:35;14.10;73.60
42095;DHT22;27753;55.724;37.612;2023-05-20T05:30:01;14.10;73.70
42095;DHT22;27753;55.724;37.612;2023-05-20T05:32:27;14.30;73.80
42095;DHT22;27753;55.724;37.612;2023-05-20T05:34:53;14.40;72.90
42095;DHT22;27753;55.724;37.612;2023-05-20T05:37:18;14.40;72.70
42095;DHT22;27753;55.724;37.612;2023-05-20T05:39:44;14.50;72.70
42095;DHT22;27753;55.724;37.612;2023-05-20T05:42:10;14.60;72.60
42095;DHT22;27753;55.724;37.612;2023-05-20T05:44:35;14.80;72.20
42095;DHT22;27753;55.724;37.612;2023-05-20T05:47:02;14.90;71.00
42095;DHT22;27753;55.724;37.612;2023-05-20T05:49:28;15.00;71.30
42095;DHT22;27753;55.724;37.612;2023-05-20T05:51:54;15.40;71.10
42095;DHT22;27753;55.724;37.612;2023-05-20T05:54:19;15.80;70.30
42095;DHT22;27753;55.724;37.612;2023-05-20T05:56:45;16.00;68.60
42095;DHT22;27753;55.724;37.612;2023-05-20T05:59:11;16.10;68.50
42095;DHT22;27753;55.724;37.612;2023-05-20T06:01:37;16.10;68.20
42095;DHT22;27753;55.724;37.612;2023-05-20T06:04:02;16.20;67.60
42095;DHT22;27753;55.724;37.612;2023-05-20T06:06:29;16.30;67.20
42095;DHT22;27753;55.724;37.612;2023-05-20T06:08:55;16.50;66.20
42095;DHT22;27753;55.724;37.612;2023-05-20T06:11:22;16.50;66.30
42095;DHT22;27753;55.724;37.612;2023-05-20T06:13:48;16.70;66.00
42095;DHT22;27753;55.724;37.612;2023-05-20T06:16:14;16.80;65.20
42095;DHT22;27753;55.724;37.612;2023-05-20T06:18:41;17.20;65.00
42095;DHT22;27753;55.724;37.612;2023-05-20T06:21:07;17.70;63.60
42095;DHT22;27753;55.724;37.612;2023-05-20T06:23:34;17.90;63.00
42095;DHT22;27753;55.724;37.612;2023-05-20T06:25:59;17.90;62.50
42095;DHT22;27753;55.724;37.612;2023-05-20T06:28:25;17.90;62.40
42095;DHT22;27753;55.724;37.612;2023-05-20T06:30:53;18.10;62.20
42095;DHT22;27753;55.724;37.612;2023-05-20T06:33:19;18.20;61.50
42095;DHT22;27753;55.724;37.612;2023-05-20T06:35:46;18.40;60.80
42095;DHT22;27753;55.724;37.612;2023-05-20T06:38:13;19.00;59.20
42095;DHT22;27753;55.724;37.612;2023-05-20T06:40:38;19.40;58.90
42095;DHT22;27753;55.724;37.612;2023-05-20T06:43:04;19.60;57.70
42095;DHT22;27753;55.724;37.612;2023-05-20T06:45:30;20.20;57.30
42095;DHT22;27753;55.724;37.612;2023-05-20T07:04:58;20.30;55.90
42095;DHT22;27753;55.724;37.612;2023-05-20T07:07:24;23.80;49.30
42095;DHT22;27753;55.724;37.612;2023-05-20T07:09:49;23.80;48.10
42095;DHT22;27753;55.724;37.612;2023-05-20T07:12:15;23.80;46.90
42095;DHT22;27753;55.724;37.612;2023-05-20T07:14:41;23.80;47.10
42095;DHT22;27753;55.724;37.612;2023-05-20T07:17:07;23.60;47.00
42095;DHT22;27753;55.724;37.612;2023-05-20T07:19:32;23.10;46.80
42095;DHT22;27753;55.724;37.612;2023-05-20T07:21:58;22.70;47.80
42095;DHT22;27753;55.724;37.612;2023-05-20T07:24:24;22.50;47.90
42095;DHT22;27753;55.724;37.612;2023-05-20T07:26:50;22.70;47.80
42095;DHT22;27753;55.724;37.612;2023-05-20T07:29:16;22.70;47.50
42095;DHT22;27753;55.724;37.612;2023-05-20T07:31:42;22.90;47.80
42095;DHT22;27753;55.724;37.612;2023-05-20T07:34:08;23.10;47.00
42095;DHT22;27753;55.724;37.612;2023-05-20T07:36:33;22.80;47.30
42095;DHT22;27753;55.724;37.612;2023-05-20T07:38:59;23.90;46.50
42095;DHT22;27753;55.724;37.612;2023-05-20T07:41:25;25.40;45.10
42095;DHT22;27753;55.724;37.612;2023-05-20T07:43:51;27.20;43.70
42095;DHT22;27753;55.724;37.612;2023-05-20T07:46:17;29.00;40.90
42095;DHT22;27753;55.724;37.612;2023-05-20T07:48:43;29.00;38.60
42095;DHT22;27753;55.724;37.612;2023-05-20T07:51:09;28.80;37.50
42095;DHT22;27753;55.724;37.612;2023-05-20T07:53:37;28.00;38.10
42095;DHT22;27753;55.724;37.612;2023-05-20T07:56:02;27.20;37.80
42095;DHT22;27753;55.724;37.612;2023-05-20T07:58:28;26.10;39.00
42095;DHT22;27753;55.724;37.612;2023-05-20T08:00:55;26.20;39.40
42095;DHT22;27753;55.724;37.612;2023-05-20T08:03:21;25.80;37.90
42095;DHT22;27753;55.724;37.612;2023-05-20T08:05:47;24.30;38.60
42095;DHT22;27753;55.724;37.612;2023-05-20T08:08:13;23.20;40.50
42095;DHT22;27753;55.724;37.612;2023-05-20T08:10:39;24.40;41.20
42095;DHT22;27753;55.724;37.612;2023-05-20T08:13:04;25.30;38.50
42095;DHT22;27753;55.724;37.612;2023-05-20T08:15:30;25.40;37.60
42095;DHT22;27753;55.724;37.612;2023-05-20T08:17:56;25.00;38.50
42095;DHT22;27753;55.724;37.612;2023-05-20T08:20:25;26.30;38.90
42095;DHT22;27753;55.724;37.612;2023-05-20T08:22:51;27.60;36.80
42095;DHT22;27753;55.724;37.612;2023-05-20T08:25:16;27.10;36.20
42095;DHT22;27753;55.724;37.612;2023-05-20T08:27:42;25.30;37.00
42095;DHT22;27753;55.724;37.612;2023-05-20T08:30:08;23.70;39.00
42095;DHT22;27753;55.724;37.612;2023-05-20T08:32:38;23.60;40.30
42095;DHT22;27753;55.724;37.612;2023-05-20T08:35:06;23.30;40.50
42095;DHT22;27753;55.724;37.612;2023-05-20T08:37:32;23.60;41.00
42095;DHT22;27753;55.724;37.612;2023-05-20T08:39:58;23.60;40.50
42095;DHT22;27753;55.724;37.612;2023-05-20T08:42:23;23.80;40.70
42095;DHT22;27753;55.724;37.612;2023-05-20T08:44:52;23.70;40.70
42095;DHT22;27753;55.724;37.612;2023-05-20T08:47:18;22.80;41.60
42095;DHT22;27753;55.724;37.612;2023-05-20T08:49:46;21.70;42.90
42095;DHT22;27753;55.724;37.612;2023-05-20T08:52:12;20.80;44.40
42095;DHT22;27753;55.724;37.612;2023-05-20T08:54:43;20.30;46.20
42095;DHT22;27753;55.724;37.612;2023-05-20T08:57:10;20.20;46.40
42095;DHT22;27753;55.724;37.612;2023-05-20T08:59:39;19.90;46.00
42095;DHT22;27753;55.724;37.612;2023-05-20T09:02:06;19.80;46.40
42095;DHT22;27753;55.724;37.612;2023-05-20T09:04:33;19.70;46.90
42095;DHT22;27753;55.724;37.612;2023-05-20T09:06:59;19.70;47.20
42095;DHT22;27753;55.724;37.612;2023-05-20T09:09:26;19.70;47.80
42095;DHT22;27753;55.724;37.612;2023-05-20T09:11:52;19.60;48.40
42095;DHT22;27753;55.724;37.612;2023-05-20T09:14:17;19.70;48.30
42095;DHT22;27753;55.724;37.612;2023-05-20T09:16:43;19.70;48.30
42095;DHT22;27753;55.724;37.612;2023-05-20T09:19:10;19.60;48.30
42095;DHT22;27753;55.724;37.612;2023-05-20T09:21:36;19.30;48.70
42095;DHT22;27753;55.724;37.612;2023-05-20T09:24:03;19.10;49.40
42095;DHT22;27753;55.724;37.612;2023-05-20T09:26:30;19.00;49.20
42095;DHT22;27753;55.724;37.612;2023-05-20T09:28:57;19.00;49.70
42095;DHT22;27753;55.724;37.612;2023-05-20T09:31:26;19.10;49.80
42095;DHT22;27753;55.724;37.612;2023-05-20T09:33:53;18.90;49.80
42095;DHT22;27753;55.724;37.612;2023-05-20T09:36:21;18.80;50.30
42095;DHT22;27753;55.724;37.612;2023-05-20T09:38:47;18.90;50.50
42095;DHT22;27753;55.724;37.612;2023-05-20T09:41:17;19.00;50.00
42095;DHT22;27753;55.724;37.612;2023-05-20T09:43:46;19.00;49.80
42095;DHT22;27753;55.724;37.612;2023-05-20T09:46:12;18.80;49.90
42095;DHT22;27753;55.724;37.612;2023-05-20T09:48:38;18.70;50.30
42095;DHT22;27753;55.724;37.612;2023-05-20T09:51:04;18.60;50.30
42095;DHT22;27753;55.724;37.612;2023-05-20T09:53:31;18.70;50.10
42095;DHT22;27753;55.724;37.612;2023-05-20T09:55:57;18.50;50.40
42095;DHT22;27753;55.724;37.612;2023-05-20T09:58:22;18.60;50.60
42095;DHT22;27753;55.724;37.612;2023-05-20T10:00:49;18.80;50.90
42095;DHT22;27753;55.724;37.612;2023-05-20T10:03:17;18.80;50.80
42095;DHT22;27753;55.724;37.612;2023-05-20T10:05:46;18.60;50.60
42095;DHT22;27753;55.724;37.612;2023-05-20T10:19:11;18.00;50.90
42095;DHT22;27753;55.724;37.612;2023-05-20T10:21:42;17.50;51.70
42095;DHT22;27753;55.724;37.612;2023-05-20T10:24:27;17.20;52.40
42095;DHT22;27753;55.724;37.612;2023-05-20T10:26:54;17.00;52.90
42095;DHT22;27753;55.724;37.612;2023-05-20T10:29:23;17.00;53.30
42095;DHT22;27753;55.724;37.612;2023-05-20T10:31:57;17.10;53.80
42095;DHT22;27753;55.724;37.612;2023-05-20T10:34:26;17.10;53.90
42095;DHT22;27753;55.724;37.612;2023-05-20T10:36:59;17.10;53.70
42095;DHT22;27753;55.724;37.612;2023-05-20T10:40:24;17.00;53.80
42095;DHT22;27753;55.724;37.612;2023-05-20T10:42:49;17.20;52.50
42095;DHT22;27753;55.724;37.612;2023-05-20T10:45:25;17.40;51.10
42095;DHT22;27753;55.724;37.612;2023-05-20T10:47:55;17.50;50.80
42095;DHT22;27753;55.724;37.612;2023-05-20T10:50:33;17.60;51.20
42095;DHT22;27753;55.724;37.612;2023-05-20T10:53:03;17.70;51.00
42095;DHT22;27753;55.724;37.612;2023-05-20T10:55:34;17.80;51.20
42095;DHT22;27753;55.724;37.612;2023-05-20T10:58:00;17.90;51.30
42095;DHT22;27753;55.724;37.612;2023-05-20T11:00:26;18.00;50.90
42095;DHT22;27753;55.724;37.612;2023-05-20T11:02:52;17.90;51.10
42095;DHT22;27753;55.724;37.612;2023-05-20T11:05:17;17.80;51.20
42095;DHT22;27753;55.724;37.612;2023-05-20T11:07:43;17.70;51.50
42095;DHT22;27753;55.724;37.612;2023-05-20T11:10:09;17.60;51.70
42095;DHT22;27753;55.724;37.612;2023-05-20T11:12:35;17.60;51.80
42095;DHT22;27753;55.724;37.612;2023-05-20T11:15:01;17.60;51.40
42095;DHT22;27753;55.724;37.612;2023-05-20T11:17:27;17.50;51.40
42095;DHT22;27753;55.724;37.612;2023-05-20T11:19:53;17.60;51.70
42095;DHT22;27753;55.724;37.612;2023-05-20T11:22:18;17.60;51.40
42095;DHT22;27753;55.724;37.612;2023-05-20T11:24:44;17.60;51.70
42095;DHT22;27753;55.724;37.612;2023-05-20T11:27:12;17.60;51.60
42095;DHT22;27753;55.724;37.612;2023-05-20T11:29:38;17.70;51.50
42095;DHT22;27753;55.724;37.612;2023-05-20T11:32:04;17.80;51.40
42095;DHT22;27753;55.724;37.612;2023-05-20T11:34:33;17.90;51.20
42095;DHT22;27753;55.724;37.612;2023-05-20T11:36:59;17.90;51.40
42095;DHT22;27753;55.724;37.612;2023-05-20T11:39:25;17.90;51.10
42095;DHT22;27753;55.724;37.612;2023-05-20T11:41:54;17.90;51.20
42095;DHT22;27753;55.724;37.612;2023-05-20T11:44:20;18.00;51.30
42095;DHT22;27753;55.724;37.612;2023-05-20T11:46:46;18.00;51.70
42095;DHT22;27753;55.724;37.612;2023-05-20T11:49:12;17.90;52.00
42095;DHT22;27753;55.724;37.612;2023-05-20T11:51:38;17.70;52.20
42095;DHT22;27753;55.724;37.612;2023-05-20T11:54:05;17.60;52.30
42095;DHT22;27753;55.724;37.612;2023-05-20T11:56:38;17.60;52.10
42095;DHT22;27753;55.724;37.612;2023-05-20T11:59:06;17.60;51.90
42095;DHT22;27753;55.724;37.612;2023-05-20T12:01:33;17.70;51.50
42095;DHT22;27753;55.724;37.612;2023-05-20T12:04:05;17.80;50.50
42095;DHT22;27753;55.724;37.612;2023-05-20T12:06:31;17.50;50.90
42095;DHT22;27753;55.724;37.612;2023-05-20T12:08:57;17.40;51.20
42095;DHT22;27753;55.724;37.612;2023-05-20T12:11:24;17.50;51.30
42095;DHT22;27753;55.724;37.612;2023-05-20T12:13:50;17.80;50.80
42095;DHT22;27753;55.724;37.612;2023-05-20T12:16:15;17.90;50.10
42095;DHT22;27753;55.724;37.612;2023-05-20T12:18:41;18.00;49.60
42095;DHT22;27753;55.724;37.612;2023-05-20T12:21:07;18.00;49.60
42095;DHT22;27753;55.724;37.612;2023-05-20T12:23:33;18.20;49.40
42095;DHT22;27753;55.724;37.612;2023-05-20T12:25:59;18.30;48.80
42095;DHT22;27753;55.724;37.612;2023-05-20T12:28:25;18.30;48.70
42095;DHT22;27753;55.724;37.612;2023-05-20T12:30:51;18.20;48.30
42095;DHT22;27753;55.724;37.612;2023-05-20T12:33:17;18.30;48.50
42095;DHT22;27753;55.724;37.612;2023-05-20T12:35:44;18.30;48.30
42095;DHT22;27753;55.724;37.612;2023-05-20T12:38:11;18.30;48.50
42095;DHT22;27753;55.724;37.612;2023-05-20T12:40:36;18.20;47.50
42095;DHT22;27753;55.724;37.612;2023-05-20T12:43:02;18.00;48.00
42095;DHT22;27753;55.724;37.612;2023-05-20T12:45:28;17.80;49.10
42095;DHT22;27753;55.724;37.612;2023-05-20T12:47:55;17.50;49.70
42095;DHT22;27753;55.724;37.612;2023-05-20T12:50:21;17.40;49.90
42095;DHT22;27753;55.724;37.612;2023-05-20T12:52:46;17.10;49.60
42095;DHT22;27753;55.724;37.612;2023-05-20T12:55:12;16.90;50.00
42095;DHT22;27753;55.724;37.612;2023-05-20T12:57:39;16.80;50.50
42095;DHT22;27753;55.724;37.612;2023-05-20T13:00:05;16.80;50.50
42095;DHT22;27753;55.724;37.612;2023-05-20T13:02:32;16.90;50.50
42095;DHT22;27753;55.724;37.612;2023-05-20T13:04:58;17.00;50.00
42095;DHT22;27753;55.724;37.612;2023-05-20T13:07:24;16.90;50.70
42095;DHT22;27753;55.724;37.612;2023-05-20T13:09:51;17.00;50.40
42095;DHT22;27753;55.724;37.612;2023-05-20T13:12:17;17.00;50.30
42095;DHT22;27753;55.724;37.612;2023-05-20T13:14:42;17.10;50.30
42095;DHT22;27753;55.724;37.612;2023-05-20T13:17:08;17.20;50.40
42095;DHT22;27753;55.724;37.612;2023-05-20T13:19:34;17.30;50.50
42095;DHT22;27753;55.724;37.612;2023-05-20T13:21:59;17.40;50.20
42095;DHT22;27753;55.724;37.612;2023-05-20T13:24:25;17.50;50.10
42095;DHT22;27753;55.724;37.612;2023-05-20T13:26:51;17.60;50.20
42095;DHT22;27753;55.724;37.612;2023-05-20T13:29:17;17.40;50.50
42095;DHT22;27753;55.724;37.612;2023-05-20T13:31:42;17.40;51.30
42095;DHT22;27753;55.724;37.612;2023-05-20T13:34:08;17.20;52.00
42095;DHT22;27753;55.724;37.612;2023-05-20T13:36:34;16.90;52.70
42095;DHT22;27753;55.724;37.612;2023-05-20T13:38:59;16.80;52.90
42095;DHT22;27753;55.724;37.612;2023-05-20T13:43:07;16.50;53.30
42095;DHT22;27753;55.724;37.612;2023-05-20T13:45:33;16.40;54.60
42095;DHT22;27753;55.724;37.612;2023-05-20T13:47:58;16.40;54.80
42095;DHT22;27753;55.724;37.612;2023-05-20T13:50:25;16.50;54.90
42095;DHT22;27753;55.724;37.612;2023-05-20T13:52:51;16.60;54.80
42095;DHT22;27753;55.724;37.612;2023-05-20T13:55:17;16.70;54.50
42095;DHT22;27753;55.724;37.612;2023-05-20T13:57:43;16.60;54.50
42095;DHT22;27753;55.724;37.612;2023-05-20T14:00:09;16.50;54.50
42095;DHT22;27753;55.724;37.612;2023-05-20T14:02:35;16.50;54.80
42095;DHT22;27753;55.724;37.612;2023-05-20T14:05:01;16.50;55.30
42095;DHT22;27753;55.724;37.612;2023-05-20T14:07:27;16.50;54.00
42095;DHT22;27753;55.724;37.612;2023-05-20T14:09:53;16.50;53.00
42095;DHT22;27753;55.724;37.612;2023-05-20T14:12:18;16.40;52.20
42095;DHT22;27753;55.724;37.612;2023-05-20T14:14:44;16.30;52.10
42095;DHT22;27753;55.724;37.612;2023-05-20T14:17:10;16.20;52.40
42095;DHT22;27753;55.724;37.612;2023-05-20T14:19:36;16.20;52.50
42095;DHT22;27753;55.724;37.612;2023-05-20T14:22:02;16.10;53.20
42095;DHT22;27753;55.724;37.612;2023-05-20T14:24:28;16.10;53.40
42095;DHT22;27753;55.724;37.612;2023-05-20T14:26:54;16.00;53.50
42095;DHT22;27753;55.724;37.612;2023-05-20T14:29:20;16.00;54.00
42095;DHT22;27753;55.724;37.612;2023-05-20T14:31:46;16.00;54.60
42095;DHT22;27753;55.724;37.612;2023-05-20T14:34:12;16.00;55.70
42095;DHT22;27753;55.724;37.612;2023-05-20T14:36:37;16.00;55.50
42095;DHT22;27753;55.724;37.612;2023-05-20T14:39:04;16.00;55.80
42095;DHT22;27753;55.724;37.612;2023-05-20T14:41:30;16.00;56.10
42095;DHT22;27753;55.724;37.612;2023-05-20T14:43:56;16.00;56.30
42095;DHT22;27753;55.724;37.612;2023-05-20T14:46:22;16.00;56.50
42095;DHT22;27753;55.724;37.612;2023-05-20T14:48:47;16.10;56.70
42095;DHT22;27753;55.724;37.612;2023-05-20T14:51:13;16.20;56.50
42095;DHT22;27753;55.724;37.612;2023-05-20T14:53:39;16.10;56.60
42095;DHT22;27753;55.724;37.612;2023-05-20T14:56:05;16.10;56.80
42095;DHT22;27753;55.724;37.612;2023-05-20T14:58:31;16.00;56.90
42095;DHT22;27753;55.724;37.612;2023-05-20T15:00:57;15.90;57.00
42095;DHT22;27753;55.724;37.612;2023-05-20T15:03:22;15.90;57.00
42095;DHT22;27753;55.724;37.612;2023-05-20T15:05:48;15.90;57.30
42095;DHT22;27753;55.724;37.612;2023-05-20T15:08:14;15.90;57.30
42095;DHT22;27753;55.724;37.612;2023-05-20T15:10:40;15.90;57.10
42095;DHT22;27753;55.724;37.612;2023-05-20T15:13:06;15.90;57.40
42095;DHT22;27753;55.724;37.612;2023-05-20T15:15:33;16.00;57.10
42095;DHT22;27753;55.724;37.612;2023-05-20T15:17:59;16.00;57.00
42095;DHT22;27753;55.724;37.612;2023-05-20T15:20:25;16.00;56.80
42095;DHT22;27753;55.724;37.612;2023-05-20T15:22:53;15.90;56.60
42095;DHT22;27753;55.724;37.612;2023-05-20T15:25:18;15.90;56.50
42095;DHT22;27753;55.724;37.612;2023-05-20T15:27:44;15.80;56.20
42095;DHT22;27753;55.724;37.612;2023-05-20T15:30:11;15.80;56.60
42095;DHT22;27753;55.724;37.612;2023-05-20T15:32:37;15.80;56.60
42095;DHT22;27753;55.724;37.612;2023-05-20T15:35:04;15.80;56.50
42095;DHT22;27753;55.724;37.612;2023-05-20T15:37:30;15.90;56.20
42095;DHT22;27753;55.724;37.612;2023-05-20T15:39:56;16.00;57.00